Time;durP1;ratioP1;P1;durP2;ratioP2;P2;SDS_P1;SDS_P2;PMS_P1;PMS_P2;Temp;Humidity;BMP_temperature;BMP_pressure;BME280_temperature;BME280_humidity;BME280_pressure;Samples;Min_cycle;Max_cycle;Signal;HPM_P1;HPM_P2
2022/05/06 00:00:04;;;;;;;;;;;;;;;;;;5117942;28;19915;-78
2022/05/06 00:02:30;;;;;;;;;;;;;;;;;;5117701;28;19920;-76
2022/05/06 00:04:55;;;;;;;;;;;;;;;;;;5098404;28;20006;-77
2022/05/06 00:07:20;;;;;;;;;;;;;;;;;;5091733;28;19916;-78
2022/05/06 00:09:46;;;;;;;;;;;;;;;;;;5095000;28;19923;-77
2022/05/06 00:12:12;;;;;;;;;;;;;;;;;;5076701;28;19927;-78
2022/05/06 00:14:38;;;;;;;;;;;;;;;;;;5095087;28;20381;-78
2022/05/06 00:17:04;;;;;;;;;;;;;;;;;;5095158;28;19977;-77
2022/05/06 00:19:30;;;;;;;;;;;;;;;;;;5095149;28;19951;-79
2022/05/06 00:21:55;;;;;;;;;;;;;;;;;;5094254;28;19938;-78
2022/05/06 00:24:20;;;;;;;;;;;;;;;;;;5076423;28;19965;-78
2022/05/06 00:26:46;;;;;;;;;;;;;;;;;;5072860;28;19923;-78
2022/05/06 00:29:11;;;;;;;;;;;;;;;;;;5074323;28;19942;-79
2022/05/06 00:31:37;;;;;;;;;;;;;;;;;;5082090;28;19920;-78
2022/05/06 00:34:06;;;;;;;;;;;;;;;;;;5094626;28;20011;-78
2022/05/06 00:36:32;;;;;;;;;;;;;;;;;;5089966;28;19916;-77
2022/05/06 00:38:57;;;;;;;;;;;;;;;;;;5076433;28;19924;-78
2022/05/06 00:41:23;;;;;;;;;;;;;;;;;;5076112;28;19917;-78
2022/05/06 00:43:49;;;;;;;;;;;;;;;;;;5076166;28;19916;-78
2022/05/06 00:46:15;;;;;;;;;;;;;;;;;;5076370;28;20397;-77
2022/05/06 00:48:42;;;;;;;;;;;;;;;;;;5057001;28;20293;-77
2022/05/06 00:51:08;;;;;;;;;;;;;;;;;;5075984;28;20340;-77
2022/05/06 00:53:35;;;;;;;;;;;;;;;;;;5057931;28;19946;-77
2022/05/06 00:56:00;;;;;;;;;;;;;;;;;;5075922;28;19916;-78
2022/05/06 00:58:29;;;;;;;;;;;;;;;;;;5076101;28;20332;-78
2022/05/06 01:00:54;;;;;;;;;;;;;;;;;;5057886;28;19999;-78
2022/05/06 01:03:19;;;;;;;;;;;;;;;;;;5075808;28;20010;-77
2022/05/06 01:05:45;;;;;;;;;;;;;;;;;;5057647;28;19923;-77
2022/05/06 01:08:10;;;;;;;;;;;;;;;;;;5057505;28;19951;-78
2022/05/06 01:10:37;;;;;;;;;;;;;;;;;;5041010;28;19956;-77
2022/05/06 01:13:02;;;;;;;;;;;;;;;;;;5057491;28;19955;-77
2022/05/06 01:15:30;;;;;;;;;;;;;;;;;;5057311;28;19927;-77
2022/05/06 01:18:04;;;;;;;;;;;;;;;;;;5074222;28;19916;-78
2022/05/06 01:20:33;;;;;;;;;;;;;;;;;;5057469;28;19917;-78
2022/05/06 01:22:59;;;;;;;;;;;;;;;;;;5075389;28;19931;-77
2022/05/06 01:25:26;;;;;;;;;;;;;;;;;;5092941;28;19958;-77
2022/05/06 01:28:02;;;;;;;;;;;;;;;;;;5095351;28;19923;-78
2022/05/06 01:30:30;;;;;;;;;;;;;;;;;;5077335;28;19916;-77
2022/05/06 01:32:57;;;;;;;;;;;;;;;;;;5074576;28;19920;-77
2022/05/06 01:35:24;;;;;;;;;;;;;;;;;;5057121;28;20389;-78
2022/05/06 01:37:51;;;;;;;;;;;;;;;;;;5075085;28;19922;-77
2022/05/06 01:40:18;;;;;;;;;;;;;;;;;;5069869;28;19923;-77
2022/05/06 01:42:44;;;;;;;;;;;;;;;;;;5060358;28;19939;-77
2022/05/06 01:45:13;;;;;;;;;;;;;;;;;;5076440;28;19941;-78
2022/05/06 01:47:42;;;;;;;;;;;;;;;;;;5076724;28;19916;-77
2022/05/06 01:50:12;;;;;;;;;;;;;;;;;;5076229;28;19922;-78
2022/05/06 01:52:40;;;;;;;;;;;;;;;;;;5057100;28;19927;-77
2022/05/06 01:55:06;;;;;;;;;;;;;;;;;;5074873;28;19923;-78
2022/05/06 01:57:39;;;;;;;;;;;;;;;;;;5063704;28;19962;-77
2022/05/06 02:00:06;;;;;;;;;;;;;;;;;;5077187;28;19920;-78
2022/05/06 02:02:41;;;;;;;;;;;;;;;;;;5110925;28;19927;-78
2022/05/06 02:05:19;;;;;;;;;;;;;;;;;;5080179;28;21315;-78
2022/05/06 02:07:49;;;;;;;;;;;;;;;;;;5096758;28;20385;-77
2022/05/06 02:10:18;;;;;;;;;;;;;;;;;;5115264;28;19951;-79
2022/05/06 02:12:47;;;;;;;;;;;;;;;;;;5096839;28;19919;-78
2022/05/06 02:15:24;;;;;;;;;;;;;;;;;;5111009;27;19922;-77
2022/05/06 02:18:05;;;;;;;;;;;;;;;;;;5117127;27;20361;-77
2022/05/06 02:20:30;;;;;;;;;;;;;;;;;;5108728;27;19923;-76
2022/05/06 02:23:27;;;;;;;;;;;;;;;;;;5072534;28;19955;-78
2022/05/06 02:26:05;;;;;;;;;;;;;;;;;;5093571;28;19923;-78
2022/05/06 02:28:40;;;;;;;;;;;;;;;;;;5096483;28;19915;-79
2022/05/06 02:33:52;;;;;;;;;;;;;;;;;;5097980;28;20292;-77
2022/05/06 02:36:37;;;;;;;;;;;;;;;;;;5115779;28;20296;-78
2022/05/06 02:39:03;;;;;;;;;;;;;;;;;;5098572;28;20014;-77
2022/05/06 02:41:31;;;;;;;;;;;;;;;;;;5097173;28;19915;-78
2022/05/06 02:43:57;;;;;;;;;;;;;;;;;;5090058;28;19916;-78
2022/05/06 02:46:27;;;;;;;;;;;;;;;;;;5076476;28;19961;-78
2022/05/06 02:48:54;;;;;;;;;;;;;;;;;;5076166;28;19916;-77
2022/05/06 02:51:20;;;;;;;;;;;;;;;;;;5093645;28;20030;-76
2022/05/06 02:53:46;;;;;;;;;;;;;;;;;;5092314;28;19938;-77
2022/05/06 02:56:14;;;;;;;;;;;;;;;;;;5096219;28;20251;-77
2022/05/06 02:58:46;;;;;;;;;;;;;;;;;;5095946;28;19923;-77
2022/05/06 03:01:12;;;;;;;;;;;;;;;;;;5068598;28;19920;-77
2022/05/06 03:03:39;;;;;;;;;;;;;;;;;;5075846;28;20362;-77
2022/05/06 03:06:12;;;;;;;;;;;;;;;;;;5060356;28;20297;-77
2022/05/06 03:08:38;;;;;;;;;;;;;;;;;;5094243;28;19919;-77
2022/05/06 03:11:05;;;;;;;;;;;;;;;;;;5075036;28;20321;-77
2022/05/06 03:13:34;;;;;;;;;;;;;;;;;;5075515;28;19920;-77
2022/05/06 03:16:04;;;;;;;;;;;;;;;;;;5075985;28;19916;-77
2022/05/06 03:18:30;;;;;;;;;;;;;;;;;;5076069;28;19922;-77
2022/05/06 03:20:56;;;;;;;;;;;;;;;;;;5076050;28;19962;-76
2022/05/06 03:23:21;;;;;;;;;;;;;;;;;;5075581;28;20389;-77
2022/05/06 03:25:46;;;;;;;;;;;;;;;;;;5058941;28;19916;-77
2022/05/06 03:28:12;;;;;;;;;;;;;;;;;;5093709;28;20139;-77
2022/05/06 03:30:40;;;;;;;;;;;;;;;;;;5094111;28;19923;-77
2022/05/06 03:33:15;;;;;;;;;;;;;;;;;;5075855;28;19979;-77
2022/05/06 03:35:40;;;;;;;;;;;;;;;;;;5075603;28;20401;-78
2022/05/06 03:38:07;;;;;;;;;;;;;;;;;;5075833;28;20273;-77
2022/05/06 03:40:34;;;;;;;;;;;;;;;;;;5075401;28;19916;-78
2022/05/06 03:43:02;;;;;;;;;;;;;;;;;;5075733;28;19920;-77
2022/05/06 03:45:28;;;;;;;;;;;;;;;;;;5075666;28;19923;-77
2022/05/06 03:47:56;;;;;;;;;;;;;;;;;;5079897;28;20010;-77
2022/05/06 03:53:07;;;;;;;;;;;;;;;;;;5113528;28;19963;-79
2022/05/06 03:55:33;;;;;;;;;;;;;;;;;;5077469;28;19989;-78
2022/05/06 03:57:59;;;;;;;;;;;;;;;;;;5092109;28;19943;-77
2022/05/06 04:00:27;;;;;;;;;;;;;;;;;;5073021;28;19924;-77
2022/05/06 04:03:00;;;;;;;;;;;;;;;;;;5057475;28;20377;-78
2022/05/06 04:05:27;;;;;;;;;;;;;;;;;;5073125;28;19916;-77
2022/05/06 04:07:56;;;;;;;;;;;;;;;;;;5073391;28;19969;-78
2022/05/06 04:10:22;;;;;;;;;;;;;;;;;;5073247;28;19917;-77
2022/05/06 04:12:49;;;;;;;;;;;;;;;;;;5058218;28;19930;-77
2022/05/06 04:15:15;;;;;;;;;;;;;;;;;;5091381;28;19915;-77
2022/05/06 04:17:42;;;;;;;;;;;;;;;;;;5079645;28;20353;-77
2022/05/06 04:25:41;;;;;;;;;;;;;;;;;;5076630;28;19916;-77
2022/05/06 04:28:07;;;;;;;;;;;;;;;;;;5059837;28;20383;-79
2022/05/06 04:30:32;;;;;;;;;;;;;;;;;;5097075;28;19919;-78
2022/05/06 04:33:05;;;;;;;;;;;;;;;;;;5099095;28;19920;-77
2022/05/06 04:35:31;;;;;;;;;;;;;;;;;;5084601;28;19916;-77
2022/05/06 04:37:57;;;;;;;;;;;;;;;;;;5078567;28;20007;-77
2022/05/06 04:40:22;;;;;;;;;;;;;;;;;;5072484;28;20376;-77
2022/05/06 04:42:48;;;;;;;;;;;;;;;;;;5117514;28;19931;-77
2022/05/06 04:45:17;;;;;;;;;;;;;;;;;;5097998;28;19916;-77
2022/05/06 04:47:51;;;;;;;;;;;;;;;;;;5098510;28;19947;-77
2022/05/06 04:50:18;;;;;;;;;;;;;;;;;;5098676;28;20007;-77
2022/05/06 04:52:43;;;;;;;;;;;;;;;;;;5081852;28;20437;-77
2022/05/06 04:55:09;;;;;;;;;;;;;;;;;;5098609;28;19920;-80
2022/05/06 04:57:35;;;;;;;;;;;;;;;;;;5116719;28;19962;-78
2022/05/06 05:00:01;;;;;;;;;;;;;;;;;;5098718;28;19943;-77
2022/05/06 05:02:30;;;;;;;;;;;;;;;;;;5098452;28;19924;-77
2022/05/06 05:04:58;;;;;;;;;;;;;;;;;;5109159;27;19916;-76
2022/05/06 05:07:27;;;;;;;;;;;;;;;;;;5118689;27;19919;-77
2022/05/06 05:09:55;;;;;;;;;;;;;;;;;;5118713;27;19915;-77
2022/05/06 05:12:24;;;;;;;;;;;;;;;;;;5096529;28;20426;-77
2022/05/06 05:14:50;;;;;;;;;;;;;;;;;;5095314;28;20023;-77
2022/05/06 05:17:20;;;;;;;;;;;;;;;;;;5098232;28;19942;-76
2022/05/06 05:19:45;;;;;;;;;;;;;;;;;;5097851;28;19919;-76
2022/05/06 05:22:12;;;;;;;;;;;;;;;;;;5097764;28;20002;-76
2022/05/06 05:24:39;;;;;;;;;;;;;;;;;;5097726;28;19924;-76
2022/05/06 05:27:06;;;;;;;;;;;;;;;;;;5084634;28;20443;-77
2022/05/06 05:29:32;;;;;;;;;;;;;;;;;;5061052;28;19912;-78
2022/05/06 05:31:58;;;;;;;;;;;;;;;;;;5095205;27;19967;-77
2022/05/06 05:34:25;;;;;;;;;;;;;;;;;;5118017;27;19911;-77
2022/05/06 05:36:51;;;;;;;;;;;;;;;;;;5118084;27;19915;-78
2022/05/06 05:39:16;;;;;;;;;;;;;;;;;;5115518;27;19922;-78
2022/05/06 05:41:42;;;;;;;;;;;;;;;;;;5060584;28;19916;-78
2022/05/06 05:49:37;;;;;;;;;;;;;;;;;;5095506;28;19923;-78
2022/05/06 05:52:04;;;;;;;;;;;;;;;;;;5077242;28;19973;-76
2022/05/06 05:54:30;;;;;;;;;;;;;;;;;;5077429;28;20266;-78
2022/05/06 05:56:57;;;;;;;;;;;;;;;;;;5076931;28;20398;-77
2022/05/06 05:59:24;;;;;;;;;;;;;;;;;;5076673;28;19915;-78
2022/05/06 06:01:50;;;;;;;;;;;;;;;;;;5076491;28;19927;-77
2022/05/06 06:04:16;;;;;;;;;;;;;;;;;;5076737;28;19916;-77
2022/05/06 06:06:44;;;;;;;;;;;;;;;;;;5076754;28;19923;-76
2022/05/06 06:09:10;;;;;;;;;;;;;;;;;;5077029;28;19916;-76
2022/05/06 06:11:37;;;;;;;;;;;;;;;;;;5076742;28;19994;-76
2022/05/06 06:14:05;;;;;;;;;;;;;;;;;;5093254;28;19938;-76
2022/05/06 06:16:30;;;;;;;;;;;;;;;;;;5096868;28;20369;-78
2022/05/06 06:18:58;;;;;;;;;;;;;;;;;;5115238;28;19916;-77
2022/05/06 06:21:27;;;;;;;;;;;;;;;;;;5096589;28;19916;-77
2022/05/06 06:23:52;;;;;;;;;;;;;;;;;;5096741;28;19922;-77
2022/05/06 06:26:18;;;;;;;;;;;;;;;;;;5096767;28;19916;-77
2022/05/06 06:28:44;;;;;;;;;;;;;;;;;;5079964;28;19916;-76
2022/05/06 06:31:12;;;;;;;;;;;;;;;;;;5107703;27;19919;-77
2022/05/06 06:33:38;;;;;;;;;;;;;;;;;;5117260;27;19920;-77
2022/05/06 06:36:07;;;;;;;;;;;;;;;;;;5116862;27;19920;-77
2022/05/06 06:38:33;;;;;;;;;;;;;;;;;;5117213;27;19916;-77
2022/05/06 06:40:59;;;;;;;;;;;;;;;;;;5104812;28;19927;-77
2022/05/06 06:43:25;;;;;;;;;;;;;;;;;;5114899;28;19915;-77
2022/05/06 06:46:00;;;;;;;;;;;;;;;;;;5094241;28;20270;-78
2022/05/06 06:48:39;;;;;;;;;;;;;;;;;;5096238;28;19919;-77
2022/05/06 06:51:23;;;;;;;;;;;;;;;;;;5117175;28;19923;-80
2022/05/06 06:53:53;;;;;;;;;;;;;;;;;;5114252;28;19935;-77
2022/05/06 06:56:19;;;;;;;;;;;;;;;;;;5115698;28;20441;-78
2022/05/06 06:58:44;;;;;;;;;;;;;;;;;;5115165;28;19926;-78
2022/05/06 07:01:11;;;;;;;;;;;;;;;;;;5105691;27;20006;-79
2022/05/06 07:03:36;;;;;;;;;;;;;;;;;;5136181;27;19915;-79
2022/05/06 07:14:13;;;;;;;;;;;;;;;;;;5117382;28;19961;-78
2022/05/06 07:16:39;;;;;;;;;;;;;;;;;;5114595;28;19920;-76
2022/05/06 07:19:05;;;;;;;;;;;;;;;;;;5101074;28;19923;-80
2022/05/06 07:21:30;;;;;;;;;;;;;;;;;;5076063;28;19959;-80
2022/05/06 07:23:55;;;;;;;;;;;;;;;;;;5104908;28;19959;-78
2022/05/06 07:26:21;;;;;;;;;;;;;;;;;;5117850;28;19916;-81
2022/05/06 07:28:46;;;;;;;;;;;;;;;;;;5118270;28;19916;-82
2022/05/06 07:31:11;;;;;;;;;;;;;;;;;;5118183;28;19916;-82
2022/05/06 07:33:37;;;;;;;;;;;;;;;;;;5118554;28;19924;-82
2022/05/06 07:36:02;;;;;;;;;;;;;;;;;;5119257;28;19916;-82
2022/05/06 07:38:28;;;;;;;;;;;;;;;;;;5117422;28;19916;-83
2022/05/06 07:40:53;;;;;;;;;;;;;;;;;;5119787;28;19926;-82
2022/05/06 07:43:18;;;;;;;;;;;;;;;;;;5123197;28;19920;-82
2022/05/06 07:45:44;;;;;;;;;;;;;;;;;;5122695;28;20010;-82
2022/05/06 07:48:13;;;;;;;;;;;;;;;;;;5120596;28;19916;-82
2022/05/06 07:50:43;;;;;;;;;;;;;;;;;;5105810;28;19943;-83
2022/05/06 07:53:09;;;;;;;;;;;;;;;;;;5125470;28;19924;-82
2022/05/06 07:55:36;;;;;;;;;;;;;;;;;;5127239;28;19923;-83
2022/05/06 07:58:02;;;;;;;;;;;;;;;;;;5100263;28;20487;-84
2022/05/06 08:00:27;;;;;;;;;;;;;;;;;;5120137;28;19915;-79
2022/05/06 08:05:40;;;;;;;;;;;;;;;;;;5120122;28;19915;-79
2022/05/06 08:08:05;;;;;;;;;;;;;;;;;;5102886;28;19916;-79
2022/05/06 08:10:31;;;;;;;;;;;;;;;;;;5121801;28;20057;-81
2022/05/06 08:12:56;;;;;;;;;;;;;;;;;;5124174;28;19927;-79
2022/05/06 08:15:21;;;;;;;;;;;;;;;;;;5122618;28;19968;-79
2022/05/06 08:17:47;;;;;;;;;;;;;;;;;;5123338;28;19916;-77
2022/05/06 08:20:12;;;;;;;;;;;;;;;;;;5123619;28;20381;-81
2022/05/06 08:22:38;;;;;;;;;;;;;;;;;;5125436;28;19922;-79
2022/05/06 08:25:04;;;;;;;;;;;;;;;;;;5123168;28;19923;-79
2022/05/06 08:27:35;;;;;;;;;;;;;;;;;;5104844;28;19920;-81
2022/05/06 08:30:00;;;;;;;;;;;;;;;;;;5122569;28;19916;-80
2022/05/06 08:32:26;;;;;;;;;;;;;;;;;;5098160;28;19926;-80
2022/05/06 08:34:51;;;;;;;;;;;;;;;;;;5122729;28;20012;-81
2022/05/06 08:37:16;;;;;;;;;;;;;;;;;;5122902;28;19922;-81
2022/05/06 08:39:42;;;;;;;;;;;;;;;;;;5122730;28;19915;-80
2022/05/06 08:42:08;;;;;;;;;;;;;;;;;;5104843;28;20337;-80
2022/05/06 08:52:47;;;;;;;;;;;;;;;;;;5143527;27;19920;-78
2022/05/06 08:55:12;;;;;;;;;;;;;;;;;;5143057;27;19923;-81
2022/05/06 08:57:37;;;;;;;;;;;;;;;;;;5142229;27;19937;-79
2022/05/06 09:00:06;;;;;;;;;;;;;;;;;;5141757;27;19920;-81
2022/05/06 09:02:31;;;;;;;;;;;;;;;;;;5139629;27;19920;-81
2022/05/06 09:04:57;;;;;;;;;;;;;;;;;;5123353;27;20007;-81
2022/05/06 09:07:24;;;;;;;;;;;;;;;;;;5122213;27;20003;-81
2022/05/06 09:10:09;;;;;;;;;;;;;;;;;;5141078;27;20292;-81
2022/05/06 09:12:46;;;;;;;;;;;;;;;;;;5141649;27;20370;-81
2022/05/06 09:17:59;;;;;;;;;;;;;;;;;;5118403;28;19927;-80
2022/05/06 09:20:25;;;;;;;;;;;;;;;;;;5101984;28;19916;-80
2022/05/06 09:22:51;;;;;;;;;;;;;;;;;;5103124;28;19918;-80
2022/05/06 09:25:35;;;;;;;;;;;;;;;;;;5110872;28;19956;-80
2022/05/06 09:28:00;;;;;;;;;;;;;;;;;;5121672;28;20297;-80
2022/05/06 09:30:26;;;;;;;;;;;;;;;;;;5118113;28;19927;-80
2022/05/06 09:32:51;;;;;;;;;;;;;;;;;;5119054;28;19989;-80
2022/05/06 09:35:18;;;;;;;;;;;;;;;;;;5121113;28;19916;-80
2022/05/06 09:37:50;;;;;;;;;;;;;;;;;;5121097;28;19916;-80
2022/05/06 09:40:27;;;;;;;;;;;;;;;;;;5121708;28;19915;-80
2022/05/06 09:42:55;;;;;;;;;;;;;;;;;;5120824;28;19915;-80
2022/05/06 09:45:30;;;;;;;;;;;;;;;;;;5121380;28;20428;-80
2022/05/06 09:47:59;;;;;;;;;;;;;;;;;;5119402;28;19915;-77
2022/05/06 09:50:35;;;;;;;;;;;;;;;;;;5098563;28;19916;-77
2022/05/06 09:53:01;;;;;;;;;;;;;;;;;;5117365;28;19919;-77
2022/05/06 09:55:28;;;;;;;;;;;;;;;;;;5115304;28;19915;-77
2022/05/06 09:57:54;;;;;;;;;;;;;;;;;;5114983;28;19972;-77
2022/05/06 10:00:19;;;;;;;;;;;;;;;;;;5115652;28;19924;-78
2022/05/06 10:02:44;;;;;;;;;;;;;;;;;;5116053;28;19927;-77
2022/05/06 10:05:10;;;;;;;;;;;;;;;;;;5114080;28;19916;-77
2022/05/06 10:07:39;;;;;;;;;;;;;;;;;;5096123;28;19916;-77
2022/05/06 10:10:12;;;;;;;;;;;;;;;;;;5115720;28;20014;-77
2022/05/06 10:12:42;;;;;;;;;;;;;;;;;;5096936;28;20297;-77
2022/05/06 10:15:08;;;;;;;;;;;;;;;;;;5115236;28;20380;-77
2022/05/06 10:17:47;;;;;;;;;;;;;;;;;;5114664;28;19916;-77
2022/05/06 10:20:32;;;;;;;;;;;;;;;;;;5115139;28;19916;-77
2022/05/06 10:22:58;;;;;;;;;;;;;;;;;;5114977;28;20381;-77
2022/05/06 10:25:46;;;;;;;;;;;;;;;;;;5115036;28;20025;-78
2022/05/06 10:34:14;;;;;;;;;;;;;;;;;;5111929;28;20006;-77
2022/05/06 10:36:41;;;;;;;;;;;;;;;;;;5095928;28;19927;-77
2022/05/06 10:39:17;;;;;;;;;;;;;;;;;;5107573;28;19923;-77
2022/05/06 10:42:01;;;;;;;;;;;;;;;;;;5066398;28;19920;-76
2022/05/06 10:44:38;;;;;;;;;;;;;;;;;;5103079;28;19999;-77
2022/05/06 10:47:13;;;;;;;;;;;;;;;;;;5098558;28;19948;-77
2022/05/06 10:49:38;;;;;;;;;;;;;;;;;;5104370;28;19979;-79
2022/05/06 10:52:32;;;;;;;;;;;;;;;;;;5119475;28;19920;-81
2022/05/06 10:55:03;;;;;;;;;;;;;;;;;;5094824;28;19947;-83
2022/05/06 10:57:31;;;;;;;;;;;;;;;;;;5123758;28;19922;-79
2022/05/06 10:59:58;;;;;;;;;;;;;;;;;;5124318;28;20278;-83
2022/05/06 11:02:28;;;;;;;;;;;;;;;;;;5087607;28;19920;-83
2022/05/06 11:05:20;;;;;;;;;;;;;;;;;;5121953;28;19915;-81
2022/05/06 11:07:46;;;;;;;;;;;;;;;;;;5115110;28;19965;-80
2022/05/06 11:10:14;;;;;;;;;;;;;;;;;;5119064;28;19920;-77
2022/05/06 11:12:40;;;;;;;;;;;;;;;;;;5118603;28;20354;-81
2022/05/06 11:15:07;;;;;;;;;;;;;;;;;;5121688;28;19916;-79
2022/05/06 11:17:33;;;;;;;;;;;;;;;;;;5123206;28;19930;-79
2022/05/06 11:19:59;;;;;;;;;;;;;;;;;;5121370;28;19916;-79
2022/05/06 11:22:25;;;;;;;;;;;;;;;;;;5120778;28;19916;-79
2022/05/06 11:25:01;;;;;;;;;;;;;;;;;;5097915;28;19916;-82
2022/05/06 11:27:26;;;;;;;;;;;;;;;;;;5102501;28;19983;-80
2022/05/06 11:29:56;;;;;;;;;;;;;;;;;;5122467;28;19951;-78
2022/05/06 11:32:25;;;;;;;;;;;;;;;;;;5123781;28;19973;-78
2022/05/06 11:35:03;;;;;;;;;;;;;;;;;;5125589;28;19915;-78
2022/05/06 11:37:29;;;;;;;;;;;;;;;;;;5125961;28;19915;-80
2022/05/06 11:42:39;;;;;;;;;;;;;;;;;;5124614;28;19970;-78
2022/05/06 11:47:49;;;;;;;;;;;;;;;;;;5125371;28;19926;-80
2022/05/06 11:50:15;;;;;;;;;;;;;;;;;;5121525;27;19920;-77
2022/05/06 11:52:40;;;;;;;;;;;;;;;;;;5126062;27;19942;-82
2022/05/06 11:55:06;;;;;;;;;;;;;;;;;;5129028;27;19998;-78
2022/05/06 11:57:35;;;;;;;;;;;;;;;;;;5119374;28;19922;-77
2022/05/06 12:00:02;;;;;;;;;;;;;;;;;;5119283;28;19916;-80
2022/05/06 12:02:46;;;;;;;;;;;;;;;;;;5122313;28;19981;-80
2022/05/06 12:05:12;;;;;;;;;;;;;;;;;;5106885;28;20326;-79
2022/05/06 12:07:47;;;;;;;;;;;;;;;;;;5125856;28;20011;-82
2022/05/06 12:10:33;;;;;;;;;;;;;;;;;;5121029;28;20389;-82
2022/05/06 12:12:59;;;;;;;;;;;;;;;;;;5082639;28;20278;-77
2022/05/06 12:15:28;;;;;;;;;;;;;;;;;;5097060;28;19916;-76
2022/05/06 12:18:00;;;;;;;;;;;;;;;;;;5115374;28;20297;-76
2022/05/06 12:20:42;;;;;;;;;;;;;;;;;;5115393;28;19916;-76
2022/05/06 12:23:11;;;;;;;;;;;;;;;;;;5116663;28;20377;-75
2022/05/06 12:25:39;;;;;;;;;;;;;;;;;;5116471;28;19938;-76
2022/05/06 12:28:04;;;;;;;;;;;;;;;;;;5116793;28;19916;-76
2022/05/06 12:30:29;;;;;;;;;;;;;;;;;;5096798;28;19923;-76
2022/05/06 12:33:08;;;;;;;;;;;;;;;;;;5113963;28;19919;-76
2022/05/06 12:35:52;;;;;;;;;;;;;;;;;;5114824;28;19915;-76
2022/05/06 12:38:18;;;;;;;;;;;;;;;;;;5114676;28;19923;-76
2022/05/06 12:40:43;;;;;;;;;;;;;;;;;;5114743;28;19920;-76
2022/05/06 12:43:09;;;;;;;;;;;;;;;;;;5114317;28;20386;-76
2022/05/06 12:45:35;;;;;;;;;;;;;;;;;;5115717;28;19915;-76
2022/05/06 12:50:45;;;;;;;;;;;;;;;;;;5098319;28;19916;-76
2022/05/06 12:53:11;;;;;;;;;;;;;;;;;;5116213;28;19926;-76
2022/05/06 12:55:37;;;;;;;;;;;;;;;;;;5115159;28;19919;-76
2022/05/06 12:58:02;;;;;;;;;;;;;;;;;;5116476;28;20001;-76
2022/05/06 13:00:27;;;;;;;;;;;;;;;;;;5116615;28;19923;-75
2022/05/06 13:02:53;;;;;;;;;;;;;;;;;;5116313;27;19927;-76
2022/05/06 13:05:18;;;;;;;;;;;;;;;;;;5116582;28;19915;-76
2022/05/06 13:07:44;;;;;;;;;;;;;;;;;;5098151;28;19916;-76
2022/05/06 13:10:09;;;;;;;;;;;;;;;;;;5115910;28;19920;-76
2022/05/06 13:12:35;;;;;;;;;;;;;;;;;;5116523;28;19916;-76
2022/05/06 13:15:00;;;;;;;;;;;;;;;;;;5116498;28;19941;-76
2022/05/06 13:17:25;;;;;;;;;;;;;;;;;;5081325;28;19964;-76
2022/05/06 13:19:51;;;;;;;;;;;;;;;;;;5098081;28;19969;-77
2022/05/06 13:22:17;;;;;;;;;;;;;;;;;;5116288;28;20039;-75
2022/05/06 13:24:42;;;;;;;;;;;;;;;;;;5115858;28;19923;-76
2022/05/06 13:27:08;;;;;;;;;;;;;;;;;;5116415;28;20369;-76
2022/05/06 13:29:33;;;;;;;;;;;;;;;;;;5116163;28;20274;-75
2022/05/06 13:31:59;;;;;;;;;;;;;;;;;;5116020;28;20503;-75
2022/05/06 13:34:24;;;;;;;;;;;;;;;;;;5115531;28;19915;-75
2022/05/06 13:36:49;;;;;;;;;;;;;;;;;;5116096;28;19919;-75
2022/05/06 13:39:15;;;;;;;;;;;;;;;;;;5097740;28;20269;-75
2022/05/06 13:41:41;;;;;;;;;;;;;;;;;;5115498;28;19960;-75
2022/05/06 13:44:06;;;;;;;;;;;;;;;;;;5115783;28;20606;-75
2022/05/06 13:46:32;;;;;;;;;;;;;;;;;;5115760;28;19916;-75
2022/05/06 13:48:57;;;;;;;;;;;;;;;;;;5097366;28;19916;-76
2022/05/06 13:51:22;;;;;;;;;;;;;;;;;;5115767;28;19931;-75
2022/05/06 13:53:48;;;;;;;;;;;;;;;;;;5115614;28;19919;-75
2022/05/06 13:59:06;;;;;;;;;;;;;;;;;;5115610;28;19922;-75
2022/05/06 14:01:32;;;;;;;;;;;;;;;;;;5114874;28;19920;-75
2022/05/06 14:03:58;;;;;;;;;;;;;;;;;;5097296;28;19923;-75
2022/05/06 14:06:23;;;;;;;;;;;;;;;;;;5115498;28;19915;-75
2022/05/06 14:08:48;;;;;;;;;;;;;;;;;;5115473;28;20269;-75
2022/05/06 14:11:15;;;;;;;;;;;;;;;;;;5115425;28;19939;-76
2022/05/06 14:13:41;;;;;;;;;;;;;;;;;;5115161;28;20388;-75
2022/05/06 14:16:07;;;;;;;;;;;;;;;;;;5097143;28;19919;-75
2022/05/06 14:18:32;;;;;;;;;;;;;;;;;;5115272;28;19922;-76
2022/05/06 14:20:57;;;;;;;;;;;;;;;;;;5114954;28;19937;-75
2022/05/06 14:23:24;;;;;;;;;;;;;;;;;;5115149;28;19931;-75
2022/05/06 14:25:50;;;;;;;;;;;;;;;;;;5115190;28;20346;-75
2022/05/06 14:28:15;;;;;;;;;;;;;;;;;;5096795;28;20374;-75
2022/05/06 14:30:41;;;;;;;;;;;;;;;;;;5096984;28;19919;-75
2022/05/06 14:33:07;;;;;;;;;;;;;;;;;;5111338;28;19934;-75
2022/05/06 14:35:33;;;;;;;;;;;;;;;;;;5109504;28;19915;-76
2022/05/06 14:38:00;;;;;;;;;;;;;;;;;;5114885;28;19919;-75
2022/05/06 14:40:25;;;;;;;;;;;;;;;;;;5114931;28;20398;-76
2022/05/06 14:42:51;;;;;;;;;;;;;;;;;;5114664;28;20007;-76
2022/05/06 14:45:16;;;;;;;;;;;;;;;;;;5114794;28;20373;-76
2022/05/06 14:47:42;;;;;;;;;;;;;;;;;;5095775;28;20012;-76
2022/05/06 14:50:08;;;;;;;;;;;;;;;;;;5114838;28;19962;-77
2022/05/06 14:52:33;;;;;;;;;;;;;;;;;;5114171;28;19920;-76
2022/05/06 14:55:03;;;;;;;;;;;;;;;;;;5096096;28;20002;-76
2022/05/06 14:57:28;;;;;;;;;;;;;;;;;;5096163;28;19922;-76
2022/05/06 14:59:53;;;;;;;;;;;;;;;;;;5113755;28;20010;-76
2022/05/06 15:02:19;;;;;;;;;;;;;;;;;;5094961;28;20308;-76
2022/05/06 15:04:44;;;;;;;;;;;;;;;;;;5114844;28;19969;-76
2022/05/06 15:07:10;;;;;;;;;;;;;;;;;;5112531;28;19926;-77
2022/05/06 15:09:35;;;;;;;;;;;;;;;;;;5113322;28;19916;-76
2022/05/06 15:12:01;;;;;;;;;;;;;;;;;;5113279;28;19928;-77
2022/05/06 15:14:31;;;;;;;;;;;;;;;;;;5109635;28;19951;-76
2022/05/06 15:17:04;;;;;;;;;;;;;;;;;;5112866;28;20319;-76
2022/05/06 15:19:31;;;;;;;;;;;;;;;;;;5111398;28;20308;-77
2022/05/06 15:22:02;;;;;;;;;;;;;;;;;;5095490;28;20014;-76
2022/05/06 15:24:29;;;;;;;;;;;;;;;;;;5110571;28;19916;-77
2022/05/06 15:26:55;;;;;;;;;;;;;;;;;;5074983;28;19923;-77
2022/05/06 15:29:20;;;;;;;;;;;;;;;;;;5095811;28;20361;-77
2022/05/06 15:31:46;;;;;;;;;;;;;;;;;;5095857;28;19923;-78
2022/05/06 15:34:11;;;;;;;;;;;;;;;;;;5114456;28;19915;-76
2022/05/06 15:36:37;;;;;;;;;;;;;;;;;;5114137;28;19915;-76
2022/05/06 15:39:02;;;;;;;;;;;;;;;;;;5113911;28;19984;-78
2022/05/06 15:41:28;;;;;;;;;;;;;;;;;;5114398;28;19916;-76
2022/05/06 15:43:56;;;;;;;;;;;;;;;;;;5113916;28;19922;-76
2022/05/06 15:46:24;;;;;;;;;;;;;;;;;;5114098;28;19920;-76
2022/05/06 15:48:49;;;;;;;;;;;;;;;;;;5095066;28;19965;-76
2022/05/06 15:51:18;;;;;;;;;;;;;;;;;;5113128;28;19921;-76
2022/05/06 15:53:44;;;;;;;;;;;;;;;;;;5112761;28;20449;-78
2022/05/06 15:56:10;;;;;;;;;;;;;;;;;;5116358;28;19926;-78
2022/05/06 15:58:35;;;;;;;;;;;;;;;;;;5116100;28;19916;-79
2022/05/06 16:01:00;;;;;;;;;;;;;;;;;;5117212;28;19916;-79
2022/05/06 16:03:26;;;;;;;;;;;;;;;;;;5096844;28;20381;-77
2022/05/06 16:05:52;;;;;;;;;;;;;;;;;;5114277;28;20304;-77
2022/05/06 16:08:17;;;;;;;;;;;;;;;;;;5113808;28;20014;-77
2022/05/06 16:10:43;;;;;;;;;;;;;;;;;;5113426;28;19951;-76
2022/05/06 16:13:08;;;;;;;;;;;;;;;;;;5113743;28;20326;-77
2022/05/06 16:15:34;;;;;;;;;;;;;;;;;;5096136;28;20022;-76
2022/05/06 16:18:00;;;;;;;;;;;;;;;;;;5114456;28;19916;-77
2022/05/06 16:20:26;;;;;;;;;;;;;;;;;;5117903;28;19955;-79
2022/05/06 16:22:52;;;;;;;;;;;;;;;;;;5117292;28;19915;-76
2022/05/06 16:25:18;;;;;;;;;;;;;;;;;;5115910;28;20010;-75
2022/05/06 16:27:43;;;;;;;;;;;;;;;;;;5117245;28;19919;-75
2022/05/06 16:30:13;;;;;;;;;;;;;;;;;;5116316;28;19923;-75
2022/05/06 16:32:39;;;;;;;;;;;;;;;;;;5116659;28;19919;-75
2022/05/06 16:37:48;;;;;;;;;;;;;;;;;;5115337;28;19916;-75
2022/05/06 16:40:15;;;;;;;;;;;;;;;;;;5077721;28;19916;-76
2022/05/06 16:42:44;;;;;;;;;;;;;;;;;;5116521;28;19916;-75
2022/05/06 16:45:12;;;;;;;;;;;;;;;;;;5097964;28;20325;-75
2022/05/06 16:47:38;;;;;;;;;;;;;;;;;;5116455;28;20330;-76
2022/05/06 16:50:04;;;;;;;;;;;;;;;;;;5081422;28;19980;-77
2022/05/06 16:52:29;;;;;;;;;;;;;;;;;;5116882;28;19963;-76
2022/05/06 16:54:55;;;;;;;;;;;;;;;;;;5116868;28;20265;-75
2022/05/06 16:57:21;;;;;;;;;;;;;;;;;;5116054;28;19916;-76
2022/05/06 16:59:46;;;;;;;;;;;;;;;;;;5116682;28;20597;-76
2022/05/06 17:02:11;;;;;;;;;;;;;;;;;;5116517;28;20384;-76
2022/05/06 17:04:38;;;;;;;;;;;;;;;;;;5116591;28;20262;-76
2022/05/06 17:07:04;;;;;;;;;;;;;;;;;;5116571;28;19937;-76
2022/05/06 17:09:29;;;;;;;;;;;;;;;;;;5115852;28;20429;-75
2022/05/06 17:11:54;;;;;;;;;;;;;;;;;;5116384;28;20020;-76
2022/05/06 17:14:20;;;;;;;;;;;;;;;;;;5117831;28;20014;-79
2022/05/06 17:16:46;;;;;;;;;;;;;;;;;;5118913;28;19923;-79
2022/05/06 17:19:11;;;;;;;;;;;;;;;;;;5117407;28;19977;-77
2022/05/06 17:21:36;;;;;;;;;;;;;;;;;;5116073;28;19923;-77
2022/05/06 17:24:02;;;;;;;;;;;;;;;;;;5116251;28;19922;-77
2022/05/06 17:26:27;;;;;;;;;;;;;;;;;;5117019;28;19920;-76
2022/05/06 17:28:53;;;;;;;;;;;;;;;;;;5099615;28;20005;-78
2022/05/06 17:31:20;;;;;;;;;;;;;;;;;;5117100;28;20004;-78
2022/05/06 17:33:46;;;;;;;;;;;;;;;;;;5099425;28;20370;-77
2022/05/06 17:36:11;;;;;;;;;;;;;;;;;;5117842;28;19959;-78
2022/05/06 17:38:37;;;;;;;;;;;;;;;;;;5116950;28;19916;-77
2022/05/06 17:41:02;;;;;;;;;;;;;;;;;;5116438;28;19920;-77
2022/05/06 17:43:27;;;;;;;;;;;;;;;;;;5115743;28;19922;-77
2022/05/06 17:45:53;;;;;;;;;;;;;;;;;;5117615;28;20289;-78